Time;durP1;ratioP1;P1;durP2;ratioP2;P2;SDS_P1;SDS_P2;PMS_P1;PMS_P2;Temp;Humidity;BMP_temperature;BMP_pressure;BME280_temperature;BME280_humidity;BME280_pressure;Samples;Min_cycle;Max_cycle;Signal;HPM_P1;HPM_P2
2021/01/07 00:01:32;;;;;;;9.90;8.70;;;;;;;10.14;52.32;99857.80;1839166;75;23571;-69
2021/01/07 00:04:02;;;;;;;10.63;8.85;;;;;;;10.14;52.33;99854.67;1862246;75;21512;-70
2021/01/07 00:06:30;;;;;;;10.70;8.20;;;;;;;10.13;52.32;99850.34;1848157;77;21161;-70
2021/01/07 00:08:58;;;;;;;10.70;8.33;;;;;;;10.14;52.33;99860.45;1852413;77;21141;-70
2021/01/07 00:11:26;;;;;;;10.13;8.25;;;;;;;10.13;52.33;99865.44;1846535;76;21168;-69
2021/01/07 00:13:54;;;;;;;10.82;8.43;;;;;;;10.13;52.36;99872.90;1854479;77;21373;-68
2021/01/07 00:16:24;;;;;;;10.50;8.40;;;;;;;10.14;52.32;99873.72;1823757;77;21140;-67
2021/01/07 00:18:52;;;;;;;10.10;7.83;;;;;;;10.14;52.34;99863.11;1831483;76;21136;-70
2021/01/07 00:21:19;;;;;;;10.82;8.75;;;;;;;10.14;52.32;99852.48;1853431;77;21139;-69
2021/01/07 00:23:48;;;;;;;10.38;8.35;;;;;;;10.14;52.31;99852.48;1849082;77;21115;-69
2021/01/07 00:26:16;;;;;;;9.60;7.90;;;;;;;10.14;52.34;99865.77;1839021;77;21551;-69
2021/01/07 00:28:43;;;;;;;10.15;7.92;;;;;;;10.14;52.33;99855.14;1851410;77;21160;-69
2021/01/07 00:31:13;;;;;;;10.78;8.98;;;;;;;10.13;52.34;99854.32;1849769;77;21132;-70
2021/01/07 00:33:40;;;;;;;9.93;8.33;;;;;;;10.12;52.36;99851.34;1824757;77;21734;-72
2021/01/07 00:36:08;;;;;;;10.23;7.85;;;;;;;10.14;52.36;99847.17;1841671;75;21152;-69
2021/01/07 00:38:36;;;;;;;10.40;8.15;;;;;;;10.13;52.36;99844.20;1847368;75;21419;-69
2021/01/07 00:41:03;;;;;;;10.20;8.05;;;;;;;10.13;52.38;99853.50;1851942;75;21147;-68
2021/01/07 00:43:31;;;;;;;9.15;7.67;;;;;;;10.13;52.38;99857.48;1835331;75;21128;-69
2021/01/07 00:45:58;;;;;;;10.13;7.75;;;;;;;10.12;52.38;99855.33;1838990;75;21171;-70
2021/01/07 00:48:25;;;;;;;9.48;7.35;;;;;;;10.13;52.36;99861.45;1860814;75;21584;-69
2021/01/07 00:50:53;;;;;;;9.75;7.60;;;;;;;10.12;52.36;99855.33;1864239;75;21197;-69
2021/01/07 00:53:20;;;;;;;9.50;7.53;;;;;;;10.12;52.38;99847.84;1836800;75;21156;-69
2021/01/07 00:55:48;;;;;;;10.55;7.80;;;;;;;10.12;52.39;99854.00;1827780;75;21131;-71
2021/01/07 00:58:16;;;;;;;8.90;6.80;;;;;;;10.12;52.40;99840.73;1844231;75;21119;-70
2021/01/07 01:00:43;;;;;;;8.98;7.15;;;;;;;10.12;52.39;99840.73;1844745;75;21149;-70
2021/01/07 01:03:11;;;;;;;9.20;7.60;;;;;;;10.12;52.40;99834.09;1782666;80;21277;-70
2021/01/07 01:05:39;;;;;;;8.83;7.67;;;;;;;10.12;52.40;99827.93;1782056;78;21167;-69
2021/01/07 01:08:07;;;;;;;9.68;7.42;;;;;;;10.11;52.41;99836.40;1762622;80;21088;-70
2021/01/07 01:10:35;;;;;;;8.68;7.25;;;;;;;10.11;52.40;99831.09;1773721;78;21167;-69
2021/01/07 01:13:02;;;;;;;10.30;7.42;;;;;;;10.12;52.42;99831.44;1775402;78;21118;-68
2021/01/07 01:15:33;;;;;;;9.43;7.17;;;;;;;10.12;52.42;99829.25;1759160;78;21202;-69
2021/01/07 01:18:00;;;;;;;9.53;7.12;;;;;;;10.11;52.43;99820.98;1784807;79;21988;-70
2021/01/07 01:20:27;;;;;;;8.68;7.62;;;;;;;10.11;52.43;99822.30;1782368;79;21155;-69
2021/01/07 01:22:55;;;;;;;8.98;7.15;;;;;;;10.11;52.43;99809.03;1763896;79;21591;-69
2021/01/07 01:25:22;;;;;;;8.68;7.08;;;;;;;10.11;52.45;99815.16;1769030;79;21568;-69
2021/01/07 01:27:50;;;;;;;8.38;6.65;;;;;;;10.11;52.45;99814.34;1760680;79;21187;-70
2021/01/07 01:30:18;;;;;;;8.83;7.30;;;;;;;10.10;52.46;99806.88;1747903;79;21203;-69
2021/01/07 01:32:45;;;;;;;8.98;7.10;;;;;;;10.10;52.47;99800.72;1767043;79;21204;-71
2021/01/07 01:35:13;;;;;;;8.95;7.45;;;;;;;10.09;52.44;99799.90;1785834;79;21174;-69
2021/01/07 01:37:42;;;;;;;8.50;6.90;;;;;;;10.10;52.47;99797.59;1789431;79;21127;-71
2021/01/07 01:40:12;;;;;;;8.53;7.17;;;;;;;10.10;52.49;99794.08;1805137;79;21197;-70
2021/01/07 01:42:39;;;;;;;10.18;7.80;;;;;;;10.10;52.48;99796.27;1778441;78;21199;-69
2021/01/07 01:45:09;;;;;;;8.55;7.00;;;;;;;10.10;52.48;99788.77;1777793;79;21138;-68
2021/01/07 01:47:36;;;;;;;9.93;7.25;;;;;;;10.10;52.49;99784.32;1846390;76;21648;-68
2021/01/07 01:50:07;;;;;;;9.25;7.40;;;;;;;10.10;52.50;99770.19;1824390;76;21200;-68
2021/01/07 01:52:36;;;;;;;9.50;7.45;;;;;;;10.10;52.51;99771.52;1846573;77;21180;-69
2021/01/07 01:55:07;;;;;;;8.48;7.42;;;;;;;10.10;52.51;99760.91;1845172;76;21624;-70
2021/01/07 01:57:34;;;;;;;10.23;7.33;;;;;;;10.10;52.51;99762.23;1844664;76;21124;-69
2021/01/07 02:00:02;;;;;;;9.13;7.50;;;;;;;10.10;52.51;99755.59;1839432;76;21144;-69
2021/01/07 02:02:34;;;;;;;10.35;7.72;;;;;;;10.10;52.54;99757.77;1829512;76;21131;-70
2021/01/07 02:05:02;;;;;;;9.53;7.45;;;;;;;10.10;52.52;99752.47;1840072;76;21340;-69
2021/01/07 02:07:29;;;;;;;8.43;6.90;;;;;;;10.09;52.51;99745.48;1837830;76;21560;-69
2021/01/07 02:09:56;;;;;;;10.38;7.97;;;;;;;10.10;52.54;99737.02;1845066;76;21740;-69
2021/01/07 02:12:24;;;;;;;9.53;7.20;;;;;;;10.09;52.54;99728.73;1831848;76;21109;-70
2021/01/07 02:14:51;;;;;;;9.85;7.47;;;;;;;10.10;52.54;99735.69;1857889;76;21121;-68
2021/01/07 02:17:19;;;;;;;9.98;7.78;;;;;;;10.09;52.55;99718.94;1844799;77;21338;-69
2021/01/07 02:19:46;;;;;;;9.43;7.60;;;;;;;10.10;52.56;99716.63;1830425;76;21123;-70
2021/01/07 02:22:14;;;;;;;8.50;7.05;;;;;;;10.11;52.55;99712.14;1823419;76;21097;-70
2021/01/07 02:24:41;;;;;;;9.75;8.00;;;;;;;10.10;52.55;99715.78;1845051;76;22120;-69
2021/01/07 02:27:10;;;;;;;9.53;7.50;;;;;;;10.10;52.54;99703.83;1830678;77;21161;-69
2021/01/07 02:29:39;;;;;;;9.85;7.75;;;;;;;10.11;52.55;99705.51;1840124;76;21605;-68
2021/01/07 02:32:08;;;;;;;9.18;8.00;;;;;;;10.10;52.55;99704.69;1841824;76;21144;-69
2021/01/07 02:34:35;;;;;;;10.00;7.92;;;;;;;10.11;52.57;99700.20;1842137;77;21134;-70
2021/01/07 02:37:04;;;;;;;9.85;7.08;;;;;;;10.11;52.56;99699.69;1837522;76;21175;-69
2021/01/07 02:39:32;;;;;;;10.05;8.08;;;;;;;10.11;52.56;99690.91;1837068;76;21125;-70
2021/01/07 02:41:59;;;;;;;11.08;7.78;;;;;;;10.11;52.56;99683.77;1844278;76;21326;-70
2021/01/07 02:44:26;;;;;;;10.05;7.78;;;;;;;10.12;52.55;99681.94;1824403;77;21985;-70
2021/01/07 02:46:54;;;;;;;11.53;8.43;;;;;;;10.12;52.58;99677.47;1843520;76;21143;-70
2021/01/07 02:49:22;;;;;;;8.85;7.40;;;;;;;10.12;52.56;99673.50;1833474;76;21108;-69
2021/01/07 02:51:49;;;;;;;9.73;7.45;;;;;;;10.13;52.56;99672.98;1824297;76;21128;-70
2021/01/07 02:54:16;;;;;;;9.63;7.72;;;;;;;10.13;52.55;99672.48;1770660;80;21276;-70
2021/01/07 02:56:46;;;;;;;9.65;7.53;;;;;;;10.13;52.56;99671.66;1789955;79;21627;-70
2021/01/07 02:59:14;;;;;;;10.98;7.95;;;;;;;10.13;52.58;99665.84;1763445;79;21128;-70
2021/01/07 03:01:41;;;;;;;10.58;7.75;;;;;;;10.13;52.55;99662.37;1771007;80;21116;-70
2021/01/07 03:04:08;;;;;;;9.98;7.97;;;;;;;10.13;52.58;99660.53;1770141;79;21164;-70
2021/01/07 03:06:36;;;;;;;11.03;8.70;;;;;;;10.13;52.58;99657.88;1768625;79;22203;-72
2021/01/07 03:09:04;;;;;;;10.13;8.00;;;;;;;10.13;52.58;99663.19;1784718;79;21165;-71
2021/01/07 03:11:35;;;;;;;12.03;9.08;;;;;;;10.14;52.55;99657.37;1802427;79;21167;-72
2021/01/07 03:14:03;;;;;;;10.48;8.10;;;;;;;10.14;52.54;99648.94;1804063;79;21165;-70
2021/01/07 03:16:30;;;;;;;11.68;8.88;;;;;;;10.14;52.55;99643.63;1760885;79;21193;-71
2021/01/07 03:18:58;;;;;;;12.05;8.23;;;;;;;10.14;52.58;99646.28;1792101;79;22204;-69
2021/01/07 03:21:25;;;;;;;10.30;7.40;;;;;;;10.15;52.57;99644.45;1801341;79;21146;-69
2021/01/07 03:23:53;;;;;;;8.50;7.60;;;;;;;10.15;52.57;99637.30;1801551;79;21095;-69
2021/01/07 03:26:20;;;;;;;9.60;7.50;;;;;;;10.14;52.56;99634.81;1801678;79;21146;-70
2021/01/07 03:28:48;;;;;;;9.25;7.78;;;;;;;10.14;52.56;99628.17;1850855;76;21168;-70
2021/01/07 03:31:16;;;;;;;9.93;7.08;;;;;;;10.14;52.57;99625.05;1832643;76;21366;-70
2021/01/07 03:33:43;;;;;;;9.05;7.37;;;;;;;10.15;52.56;99616.58;1851399;76;21516;-72
2021/01/07 03:36:10;;;;;;;11.20;8.35;;;;;;;10.15;52.54;99620.56;1803934;79;21159;-71
2021/01/07 03:38:37;;;;;;;9.60;7.65;;;;;;;10.16;52.56;99611.58;1848337;76;21105;-70
2021/01/07 03:41:04;;;;;;;9.28;7.30;;;;;;;10.15;52.56;99614.73;1848016;76;21133;-69
2021/01/07 03:43:32;;;;;;;8.80;7.53;;;;;;;10.16;52.54;99612.91;1849243;76;21161;-72
2021/01/07 03:45:59;;;;;;;12.33;8.08;;;;;;;10.15;52.56;99615.25;1847368;77;21173;-72
2021/01/07 03:48:27;;;;;;;10.20;7.97;;;;;;;10.16;52.56;99604.94;1847287;77;21145;-71
2021/01/07 03:50:55;;;;;;;10.03;8.83;;;;;;;10.16;52.57;99610.25;1831628;76;21108;-69
2021/01/07 03:53:22;;;;;;;10.25;8.05;;;;;;;10.16;52.54;99601.81;1847765;76;21168;-71
2021/01/07 03:55:49;;;;;;;10.40;7.40;;;;;;;10.16;52.56;99599.63;1833491;76;21355;-71
2021/01/07 03:58:17;;;;;;;9.68;8.13;;;;;;;10.16;52.57;99599.63;1847284;76;21144;-70
2021/01/07 04:00:44;;;;;;;8.83;7.37;;;;;;;10.16;52.57;99595.66;1839883;76;21148;-71
2021/01/07 04:03:12;;;;;;;9.65;7.72;;;;;;;10.15;52.54;99584.21;1834546;76;21132;-70
2021/01/07 04:05:39;;;;;;;9.48;7.47;;;;;;;10.16;52.54;99591.67;1845459;76;21117;-70
2021/01/07 04:08:06;;;;;;;8.98;7.42;;;;;;;10.15;52.56;99583.39;1818280;76;21790;-70
2021/01/07 04:10:33;;;;;;;9.05;7.15;;;;;;;10.16;52.58;99585.03;1771137;79;21435;-71
2021/01/07 04:13:01;;;;;;;9.40;7.35;;;;;;;10.16;52.57;99582.37;1802755;79;21134;-70
2021/01/07 04:15:28;;;;;;;10.00;7.60;;;;;;;10.16;52.56;99573.09;1792816;79;21622;-71
2021/01/07 04:17:56;;;;;;;10.50;8.05;;;;;;;10.16;52.57;99575.27;1804886;78;21693;-70
2021/01/07 04:20:23;;;;;;;10.00;7.75;;;;;;;10.15;52.57;99572.27;1787686;79;21360;-70
2021/01/07 04:22:50;;;;;;;10.28;8.00;;;;;;;10.16;52.58;99576.59;1796561;79;21127;-70
2021/01/07 04:25:18;;;;;;;9.40;7.72;;;;;;;10.17;52.57;99585.38;1787791;79;21146;-70
2021/01/07 04:27:45;;;;;;;9.28;7.45;;;;;;;10.16;52.56;99576.59;1802911;79;21209;-71
2021/01/07 04:30:14;;;;;;;8.68;6.75;;;;;;;10.16;52.58;99587.21;1795975;79;21131;-71
2021/01/07 04:32:41;;;;;;;8.68;7.40;;;;;;;10.16;52.57;99580.58;1799401;79;22195;-69
2021/01/07 04:35:10;;;;;;;8.68;7.00;;;;;;;10.16;52.58;99579.25;1847505;76;21120;-70
2021/01/07 04:37:37;;;;;;;9.00;7.55;;;;;;;10.17;52.58;99582.72;1850733;76;22116;-69
2021/01/07 04:40:06;;;;;;;10.30;7.60;;;;;;;10.16;52.57;99586.36;1838374;76;21192;-68
2021/01/07 04:42:34;;;;;;;9.65;7.65;;;;;;;10.17;52.59;99585.38;1761731;80;21576;-69
2021/01/07 04:45:03;;;;;;;11.20;8.78;;;;;;;10.17;52.58;99592.02;1845619;76;21200;-68
2021/01/07 04:47:30;;;;;;;9.98;7.83;;;;;;;10.16;52.59;99585.03;1841761;76;21138;-69
2021/01/07 04:49:57;;;;;;;8.35;7.30;;;;;;;10.16;52.59;99589.87;1839429;76;21137;-69
2021/01/07 04:52:25;;;;;;;9.40;7.75;;;;;;;10.16;52.60;99582.37;1816760;77;21137;-69
2021/01/07 04:54:53;;;;;;;8.60;7.22;;;;;;;10.16;52.60;99577.92;1821898;76;21140;-70
2021/01/07 04:57:20;;;;;;;9.05;7.47;;;;;;;10.16;52.60;99576.59;1838113;76;21184;-70
2021/01/07 04:59:48;;;;;;;8.08;7.12;;;;;;;10.16;52.59;99573.09;1839123;76;21872;-70
2021/01/07 05:02:15;;;;;;;8.35;7.30;;;;;;;10.17;52.60;99566.80;1781083;79;21220;-71
2021/01/07 05:04:53;;;;;;;8.08;7.25;;;;;;;10.17;52.60;99566.29;1845513;76;21126;-70
2021/01/07 05:07:20;;;;;;;8.78;7.80;;;;;;;10.16;52.60;99562.00;1845039;76;21135;-70
2021/01/07 05:09:50;;;;;;;9.83;7.87;;;;;;;10.16;52.60;99557.16;1781398;78;21199;-70
2021/01/07 05:12:17;;;;;;;9.78;7.40;;;;;;;10.16;52.63;99557.16;1783793;78;21159;-71
2021/01/07 05:14:46;;;;;;;8.75;7.08;;;;;;;10.17;52.62;99545.05;1772589;79;21180;-71
2021/01/07 05:17:15;;;;;;;9.38;7.90;;;;;;;10.17;52.62;99541.58;1759063;79;21146;-71
2021/01/07 05:19:42;;;;;;;8.20;7.05;;;;;;;10.16;52.60;99543.41;1794106;79;21172;-71
2021/01/07 05:22:12;;;;;;;9.80;7.97;;;;;;;10.17;52.62;99541.58;1813840;77;21190;-71
2021/01/07 05:24:39;;;;;;;8.68;6.55;;;;;;;10.16;52.63;99538.10;1856311;77;21120;-71
2021/01/07 05:27:11;;;;;;;8.35;7.10;;;;;;;10.16;52.64;99532.80;1826193;76;21135;-72
2021/01/07 05:29:40;;;;;;;8.78;6.95;;;;;;;10.13;52.63;99527.81;1838184;76;21129;-71
2021/01/07 05:32:08;;;;;;;8.08;7.25;;;;;;;10.16;52.65;99522.65;1845926;77;21141;-70
2021/01/07 05:34:50;;;;;;;8.25;6.67;;;;;;;10.16;52.64;99521.33;1838169;76;21178;-70
2021/01/07 05:37:18;;;;;;;7.83;6.78;;;;;;;10.16;52.66;99531.47;1817025;76;21148;-69
2021/01/07 05:39:47;;;;;;;8.03;7.22;;;;;;;10.16;52.67;99527.96;1847729;76;21180;-69
2021/01/07 05:42:14;;;;;;;7.85;6.80;;;;;;;10.15;52.67;99523.16;1833885;76;21148;-70
2021/01/07 05:44:47;;;;;;;8.75;7.05;;;;;;;10.16;52.68;99514.69;1845398;76;21149;-70
2021/01/07 05:47:28;;;;;;;8.98;7.30;;;;;;;10.16;52.67;99506.73;1840168;77;22245;-69
2021/01/07 05:49:56;;;;;;;7.58;6.40;;;;;;;10.16;52.68;99509.38;1848722;76;21161;-69
2021/01/07 05:52:29;;;;;;;8.00;6.75;;;;;;;10.15;52.68;99515.20;1829395;76;21133;-69
2021/01/07 05:55:02;;;;;;;7.50;6.55;;;;;;;10.16;52.71;99517.34;1845381;77;21182;-70
2021/01/07 05:57:30;;;;;;;8.28;7.15;;;;;;;10.15;52.72;99516.52;1855761;75;21128;-69
2021/01/07 05:59:57;;;;;;;8.05;6.95;;;;;;;10.14;52.73;99514.89;1853461;77;21201;-69
2021/01/07 06:02:25;;;;;;;8.55;7.33;;;;;;;10.14;52.74;99513.56;1826049;76;21160;-70
2021/01/07 06:04:52;;;;;;;7.78;6.30;;;;;;;10.14;52.74;99506.92;1848683;77;21123;-70
2021/01/07 06:07:20;;;;;;;8.83;7.20;;;;;;;10.15;52.73;99508.56;1877043;75;21128;-70
2021/01/07 06:09:48;;;;;;;8.35;7.12;;;;;;;10.16;52.72;99512.89;1797221;77;21113;-71
2021/01/07 06:12:15;;;;;;;8.80;7.58;;;;;;;10.17;52.71;99504.41;1854213;75;21227;-71
2021/01/07 06:14:46;;;;;;;9.35;7.22;;;;;;;10.16;52.72;99508.05;1846655;77;21140;-69
2021/01/07 06:17:14;;;;;;;7.53;6.70;;;;;;;10.16;52.72;99508.91;1850681;76;21121;-69
2021/01/07 06:19:42;;;;;;;9.15;6.85;;;;;;;10.17;52.72;99513.70;1837892;76;21137;-70
2021/01/07 06:22:12;;;;;;;8.30;7.05;;;;;;;10.17;52.73;99508.39;1834189;76;21181;-70
2021/01/07 06:24:40;;;;;;;8.25;7.10;;;;;;;10.18;52.73;99508.73;1838984;76;21270;-70
2021/01/07 06:27:32;;;;;;;8.65;6.72;;;;;;;10.19;52.73;99513.03;1818609;76;21190;-71
2021/01/07 06:30:17;;;;;;;8.40;6.78;;;;;;;10.18;52.72;99508.23;1838055;76;21132;-70
2021/01/07 06:32:50;;;;;;;9.30;7.33;;;;;;;10.18;52.74;99508.73;1830735;77;21127;-70
2021/01/07 06:35:17;;;;;;;8.30;6.78;;;;;;;10.17;52.77;99511.05;1825636;76;25704;-71
2021/01/07 06:37:50;;;;;;;7.95;6.47;;;;;;;10.17;52.77;99512.38;1825091;76;21348;-70
2021/01/07 06:40:25;;;;;;;8.48;7.28;;;;;;;10.16;52.76;99518.20;1829470;76;21116;-71
2021/01/07 06:42:54;;;;;;;8.63;7.05;;;;;;;10.16;52.80;99512.89;1829693;76;21193;-70
2021/01/07 06:45:24;;;;;;;8.58;7.35;;;;;;;10.16;52.80;99514.21;1841980;76;21104;-70
2021/01/07 06:47:54;;;;;;;8.75;6.83;;;;;;;10.17;52.79;99510.55;1837832;77;21033;-70
2021/01/07 06:50:22;;;;;;;9.70;8.25;;;;;;;10.18;52.78;99502.10;1843921;77;22800;-70
2021/01/07 06:52:50;;;;;;;8.05;6.90;;;;;;;10.18;52.81;99516.70;1836332;76;21216;-71
2021/01/07 06:55:20;;;;;;;8.53;7.00;;;;;;;10.18;52.81;99504.76;1835476;76;21697;-69
2021/01/07 06:57:55;;;;;;;9.03;6.90;;;;;;;10.18;52.79;99496.28;1824903;76;21139;-69
2021/01/07 07:00:25;;;;;;;8.20;7.30;;;;;;;10.18;52.79;99507.41;1775371;79;21121;-68
2021/01/07 07:03:12;;;;;;;9.53;6.97;;;;;;;10.19;52.80;99498.44;1768412;78;21374;-69
2021/01/07 07:05:39;;;;;;;9.10;7.20;;;;;;;10.19;52.80;99495.27;1761724;78;21159;-71
2021/01/07 07:08:21;;;;;;;9.38;6.87;;;;;;;10.20;52.79;99494.80;1772956;79;21188;-70
2021/01/07 07:10:56;;;;;;;9.13;7.75;;;;;;;10.19;52.80;99494.45;1772194;79;21610;-72
2021/01/07 07:13:28;;;;;;;9.30;7.70;;;;;;;10.19;52.80;99495.27;1758357;78;21128;-71
2021/01/07 07:16:03;;;;;;;9.83;7.72;;;;;;;10.20;52.81;99488.16;1768130;78;22153;-72
2021/01/07 07:18:34;;;;;;;9.95;7.30;;;;;;;10.19;52.81;99487.30;1781526;78;21603;-70
2021/01/07 07:21:17;;;;;;;9.88;7.47;;;;;;;10.20;52.83;99483.66;1801312;77;21194;-71
2021/01/07 07:23:46;;;;;;;10.40;7.37;;;;;;;10.21;52.81;99485.81;1767214;78;21127;-70
2021/01/07 07:26:42;;;;;;;9.18;7.47;;;;;;;10.21;52.83;99472.54;1794201;78;21631;-71
2021/01/07 07:29:16;;;;;;;9.35;7.47;;;;;;;10.20;52.84;99469.58;1805420;78;21367;-71
2021/01/07 07:31:46;;;;;;;10.15;7.53;;;;;;;10.19;52.86;99460.76;1776256;78;21607;-71
2021/01/07 07:34:15;;;;;;;11.10;7.85;;;;;;;10.20;52.85;99457.63;1770427;78;21143;-71
2021/01/07 07:36:42;;;;;;;11.53;8.35;;;;;;;10.20;52.85;99448.34;1803273;77;21144;-71
2021/01/07 07:39:10;;;;;;;9.55;6.95;;;;;;;10.21;52.85;99452.63;1762048;78;21129;-71
2021/01/07 07:41:41;;;;;;;11.78;7.85;;;;;;;10.21;52.85;99441.50;1786636;79;21385;-70
2021/01/07 07:44:09;;;;;;;10.40;8.23;;;;;;;10.23;52.85;99442.66;1771943;79;21581;-74
2021/01/07 07:46:37;;;;;;;10.60;7.95;;;;;;;10.24;52.84;99435.04;1758939;79;21618;-70
2021/01/07 07:49:09;;;;;;;10.13;8.48;;;;;;;10.24;52.82;99427.89;1784423;78;21160;-71
2021/01/07 07:51:35;;;;;;;10.82;7.42;;;;;;;10.25;52.83;99435.35;1788180;80;21740;-71
2021/01/07 07:54:05;;;;;;;9.03;7.97;;;;;;;10.26;52.83;99429.05;1805640;78;21670;-72
2021/01/07 07:56:33;;;;;;;9.48;7.25;;;;;;;10.27;52.81;99429.87;1779775;78;21140;-71
2021/01/07 07:59:04;;;;;;;10.23;8.15;;;;;;;10.27;52.80;99428.04;1789399;78;21163;-71
2021/01/07 08:01:41;;;;;;;10.70;7.70;;;;;;;10.28;52.81;99424.91;1795659;78;21153;-70
2021/01/07 08:04:17;;;;;;;12.03;8.95;;;;;;;10.29;52.78;99417.25;1799259;77;21088;-70
2021/01/07 08:06:45;;;;;;;13.38;8.30;;;;;;;10.29;52.79;99411.94;1813039;78;22022;-69
2021/01/07 08:09:15;;;;;;;10.85;7.47;;;;;;;10.29;52.79;99408.77;1804044;77;21127;-71
2021/01/07 08:11:52;;;;;;;9.25;7.25;;;;;;;10.29;52.80;99407.45;1794434;77;21175;-70
2021/01/07 08:14:25;;;;;;;9.58;7.30;;;;;;;10.30;53.12;99408.30;1792409;78;21158;-70
2021/01/07 08:16:56;;;;;;;9.28;7.33;;;;;;;10.30;53.27;99401.19;1809879;77;21535;-70
2021/01/07 08:19:33;;;;;;;9.68;7.30;;;;;;;10.33;53.27;99409.29;1800744;78;21572;-71
2021/01/07 08:22:02;;;;;;;11.73;8.15;;;;;;;10.33;53.26;99396.02;1772591;79;21147;-69
2021/01/07 08:24:29;;;;;;;10.70;7.45;;;;;;;10.33;53.24;99395.50;1851071;76;21132;-70
2021/01/07 08:27:19;;;;;;;9.93;7.22;;;;;;;10.34;53.21;99392.38;1843075;76;21145;-69
2021/01/07 08:29:58;;;;;;;12.20;7.47;;;;;;;10.36;53.17;99390.37;1837830;75;21156;-68
2021/01/07 08:32:34;;;;;;;8.95;6.87;;;;;;;10.35;53.18;99390.03;1841798;75;21354;-69
2021/01/07 08:35:08;;;;;;;9.28;7.33;;;;;;;10.35;53.15;99378.92;1774957;79;21204;-70
2021/01/07 08:37:38;;;;;;;10.78;7.53;;;;;;;10.36;53.12;99382.40;1825193;76;21192;-69
2021/01/07 08:40:07;;;;;;;9.13;6.87;;;;;;;10.37;53.09;99369.44;1792022;76;21618;-68
2021/01/07 08:42:37;;;;;;;10.25;6.87;;;;;;;10.37;53.09;99372.94;1834279;75;21143;-69
2021/01/07 08:45:07;;;;;;;9.35;6.62;;;;;;;10.38;53.08;99365.79;1836000;75;21379;-69
2021/01/07 08:47:34;;;;;;;9.05;7.10;;;;;;;10.38;53.05;99365.28;1827006;76;21175;-68
2021/01/07 08:50:11;;;;;;;10.63;6.78;;;;;;;10.39;53.04;99358.13;1843738;75;21429;-67
2021/01/07 08:52:53;;;;;;;9.33;6.37;;;;;;;10.39;53.01;99344.86;1820839;75;21171;-68
2021/01/07 08:55:21;;;;;;;9.80;7.33;;;;;;;10.40;52.99;99346.02;1828486;75;21592;-68
2021/01/07 08:58:04;;;;;;;9.25;7.00;;;;;;;10.40;52.97;99338.05;1836365;76;21145;-68
2021/01/07 09:00:31;;;;;;;8.70;7.17;;;;;;;10.41;52.97;99341.52;1829274;75;21136;-68
2021/01/07 09:03:02;;;;;;;10.03;7.25;;;;;;;10.41;52.95;99333.55;1836041;75;21160;-69
2021/01/07 09:05:30;;;;;;;7.87;6.33;;;;;;;10.42;52.92;99330.73;1824327;76;21154;-67
2021/01/07 09:08:07;;;;;;;9.80;6.83;;;;;;;10.42;52.94;99324.09;1845783;75;21140;-69
2021/01/07 09:10:35;;;;;;;9.40;7.10;;;;;;;10.43;52.90;99319.12;1855408;75;21413;-68
2021/01/07 09:13:22;;;;;;;8.75;7.10;;;;;;;10.44;52.90;99313.30;1845698;75;21561;-66
2021/01/07 09:15:49;;;;;;;7.25;5.45;;;;;;;10.45;52.89;99310.98;1830723;76;21145;-69
2021/01/07 09:18:18;;;;;;;11.00;7.33;;;;;;;10.45;52.88;99310.98;1832859;76;21171;-68
2021/01/07 09:20:46;;;;;;;9.18;6.58;;;;;;;10.45;52.88;99303.02;1837372;75;21190;-68
2021/01/07 09:23:15;;;;;;;7.67;6.17;;;;;;;10.46;52.87;99296.68;1839550;76;22258;-66
2021/01/07 09:25:46;;;;;;;9.50;6.85;;;;;;;10.47;52.85;99288.20;1835374;76;21922;-67
2021/01/07 09:28:13;;;;;;;8.45;6.95;;;;;;;10.47;52.85;99281.56;1842644;76;21112;-69
2021/01/07 09:30:43;;;;;;;7.37;6.03;;;;;;;10.47;52.83;99275.77;1834170;76;21136;-70
2021/01/07 09:33:12;;;;;;;8.00;6.58;;;;;;;10.48;52.80;99269.44;1830473;76;21172;-69
2021/01/07 09:35:40;;;;;;;7.83;6.17;;;;;;;10.49;52.82;99267.13;1845245;77;21285;-69
2021/01/07 09:38:09;;;;;;;7.53;6.30;;;;;;;10.52;52.82;99263.27;1830239;76;21188;-68
2021/01/07 09:40:36;;;;;;;8.15;5.80;;;;;;;10.52;52.79;99267.26;1834061;76;21680;-69
2021/01/07 09:43:04;;;;;;;9.25;6.78;;;;;;;10.53;52.76;99256.46;1827117;76;21202;-69
2021/01/07 09:45:31;;;;;;;8.65;6.42;;;;;;;10.54;52.78;99241.34;1840101;76;21597;-69
2021/01/07 09:47:59;;;;;;;7.45;6.17;;;;;;;10.55;52.74;99245.66;1853903;77;21262;-68
2021/01/07 09:50:26;;;;;;;9.55;6.75;;;;;;;10.56;52.72;99234.02;1834555;76;21191;-68
2021/01/07 09:52:54;;;;;;;6.70;5.75;;;;;;;10.56;52.71;99230.84;1780759;79;21888;-68
2021/01/07 09:55:22;;;;;;;8.45;6.42;;;;;;;10.57;52.70;99221.08;1826684;76;22051;-68
2021/01/07 09:57:51;;;;;;;8.35;5.85;;;;;;;10.59;52.68;99215.08;1828632;77;21164;-69
2021/01/07 10:00:20;;;;;;;8.70;6.78;;;;;;;10.59;52.68;99210.58;1850441;77;21198;-68
2021/01/07 10:02:47;;;;;;;8.20;6.28;;;;;;;10.60;52.66;99198.97;1841359;76;21198;-69
2021/01/07 10:05:16;;;;;;;7.22;5.95;;;;;;;10.60;52.67;99196.31;1847344;76;21108;-68
2021/01/07 10:07:43;;;;;;;7.62;5.60;;;;;;;10.61;52.69;99193.14;1830689;77;21608;-67
2021/01/07 10:10:12;;;;;;;7.42;6.08;;;;;;;10.62;52.65;99194.77;1829320;77;21211;-68
2021/01/07 10:12:40;;;;;;;7.72;5.72;;;;;;;10.63;52.64;99189.80;1825123;76;21560;-68
2021/01/07 10:15:09;;;;;;;7.83;6.03;;;;;;;10.63;52.62;99181.83;1855720;76;21648;-68
2021/01/07 10:17:37;;;;;;;7.50;5.67;;;;;;;10.65;52.63;99181.14;1856056;76;21108;-68
2021/01/07 10:20:08;;;;;;;7.75;6.15;;;;;;;10.65;52.62;99174.50;1859346;76;21295;-67
2021/01/07 10:22:39;;;;;;;7.22;5.97;;;;;;;10.66;52.61;99166.84;1847286;77;21160;-68
2021/01/07 10:25:09;;;;;;;7.95;6.28;;;;;;;10.66;52.61;99164.69;1848165;76;21194;-68
2021/01/07 10:27:37;;;;;;;7.50;5.80;;;;;;;10.66;52.62;99160.70;1849403;77;21121;-67
2021/01/07 10:30:07;;;;;;;7.28;5.53;;;;;;;10.67;52.62;99151.23;1847149;76;21157;-68
2021/01/07 10:32:34;;;;;;;6.95;5.50;;;;;;;10.67;52.59;99143.77;1846551;76;21208;-68
2021/01/07 10:36:04;;;;;;;7.87;6.03;;;;;;;10.72;52.61;99137.39;1813507;78;28184;-68
2021/01/07 10:38:32;;;;;;;6.67;5.55;;;;;;;10.68;52.62;99130.80;1742298;82;21192;-69
2021/01/07 10:41:00;;;;;;;7.17;5.25;;;;;;;10.69;52.58;99124.49;1784947;79;21421;-68
2021/01/07 10:43:27;;;;;;;6.45;5.17;;;;;;;10.70;52.59;99115.50;1767379;79;21189;-68
2021/01/07 10:45:55;;;;;;;7.03;5.47;;;;;;;10.71;52.59;99109.19;1729566;81;21186;-68
2021/01/07 10:48:23;;;;;;;6.60;5.53;;;;;;;10.71;52.58;99107.35;1742115;81;21609;-69
2021/01/07 10:50:51;;;;;;;6.62;5.12;;;;;;;10.72;52.58;99093.55;1762965;81;21155;-68
2021/01/07 10:54:07;;;;;;;7.00;5.62;;;;;;;10.72;52.57;99090.42;1749314;81;22216;-69
2021/01/07 10:56:40;;;;;;;6.97;4.80;;;;;;;10.73;52.58;99085.92;1727341;81;21173;-69
2021/01/07 10:59:34;;;;;;;6.50;5.50;;;;;;;10.71;52.61;99078.64;1785662;79;21163;-69
2021/01/07 11:02:16;;;;;;;7.22;5.17;;;;;;;10.70;52.62;99077.83;1789532;79;21134;-68
2021/01/07 11:05:04;;;;;;;8.18;5.95;;;;;;;10.71;52.65;99069.34;1804026;79;21552;-69
2021/01/07 11:07:46;;;;;;;5.42;4.80;;;;;;;10.70;52.67;99061.89;1755355;79;22261;-69
2021/01/07 11:10:14;;;;;;;7.08;5.22;;;;;;;10.69;52.70;99059.41;1742267;82;21160;-69
2021/01/07 11:13:02;;;;;;;6.25;5.47;;;;;;;10.68;52.71;99058.59;1738799;81;21147;-69
2021/01/07 11:15:30;;;;;;;6.58;5.53;;;;;;;10.68;52.72;99055.94;1717698;81;21157;-69
2021/01/07 11:18:13;;;;;;;7.20;5.30;;;;;;;10.69;52.74;99049.59;1734216;81;21159;-69
2021/01/07 11:20:44;;;;;;;7.22;5.37;;;;;;;10.70;52.74;99038.45;1753322;80;21187;-68
2021/01/07 11:23:12;;;;;;;7.65;5.40;;;;;;;10.70;52.74;99034.48;1765270;79;21136;-69
2021/01/07 11:25:39;;;;;;;6.25;5.35;;;;;;;10.69;52.71;99020.38;1762975;79;21191;-69
2021/01/07 11:28:07;;;;;;;6.87;5.17;;;;;;;10.71;52.75;99025.51;1770541;79;21151;-69
2021/01/07 11:30:36;;;;;;;5.65;5.00;;;;;;;10.71;52.75;99025.51;1742450;81;21140;-68
2021/01/07 11:33:04;;;;;;;6.65;5.58;;;;;;;10.73;52.72;99015.52;1731984;82;21210;-69
2021/01/07 11:35:32;;;;;;;6.00;5.08;;;;;;;10.73;52.72;99010.20;1781690;78;21182;-69
2021/01/07 11:38:04;;;;;;;6.12;5.17;;;;;;;10.73;52.73;99005.70;1766996;79;21606;-70
2021/01/07 11:40:43;;;;;;;6.30;5.37;;;;;;;10.74;52.71;99004.71;1774816;80;21127;-69
2021/01/07 11:43:23;;;;;;;5.12;4.37;;;;;;;10.75;52.70;99000.22;1766035;80;21392;-68
2021/01/07 11:46:01;;;;;;;5.65;4.87;;;;;;;10.75;52.71;98984.27;1773500;80;23446;-68